Time;durP1;ratioP1;P1;durP2;ratioP2;P2;SDS_P1;SDS_P2;PMS_P1;PMS_P2;Temp;Humidity;BMP_temperature;BMP_pressure;BME280_temperature;BME280_humidity;BME280_pressure;Samples;Min_cycle;Max_cycle;Signal;HPM_P1;HPM_P2
2021/12/01 00:00:51;;;;;;;5.40;4.53;;;8.70;99.90;;;;;;5012040;28;20206;-60
2021/12/01 00:03:18;;;;;;;5.20;4.13;;;8.70;99.90;;;;;;5011558;28;20640;-59
2021/12/01 00:05:44;;;;;;;3.57;3.27;;;8.70;99.90;;;;;;5011906;28;20606;-60
2021/12/01 00:08:11;;;;;;;2.73;2.40;;;8.70;99.90;;;;;;5012172;28;20211;-60
2021/12/01 00:10:39;;;;;;;3.80;2.90;;;8.60;99.90;;;;;;5011873;28;20214;-60
2021/12/01 00:13:08;;;;;;;4.23;2.80;;;8.70;99.90;;;;;;5011488;28;20227;-60
2021/12/01 00:15:36;;;;;;;4.83;3.43;;;8.60;99.90;;;;;;5011952;28;20218;-59
2021/12/01 00:18:03;;;;;;;4.43;3.43;;;8.60;99.90;;;;;;5011845;28;20262;-60
2021/12/01 00:20:30;;;;;;;4.07;2.90;;;8.60;99.90;;;;;;5011743;28;20211;-60
2021/12/01 00:22:58;;;;;;;4.47;3.13;;;8.60;99.90;;;;;;5011781;28;20234;-59
2021/12/01 00:25:25;;;;;;;4.37;3.40;;;8.60;99.90;;;;;;5012134;28;20233;-60
2021/12/01 00:27:53;;;;;;;4.53;3.57;;;8.50;99.90;;;;;;5011752;28;20207;-58
2021/12/01 00:30:21;;;;;;;4.10;3.53;;;8.50;99.90;;;;;;5011860;28;20568;-60
2021/12/01 00:32:52;;;;;;;4.67;3.83;;;8.50;99.90;;;;;;5011035;28;20226;-59
2021/12/01 00:35:18;;;;;;;5.93;3.67;;;8.50;99.90;;;;;;5011986;28;20214;-59
2021/12/01 00:37:45;;;;;;;4.10;3.53;;;8.50;99.90;;;;;;5011777;28;20269;-59
2021/12/01 00:40:13;;;;;;;4.47;4.07;;;8.50;99.90;;;;;;5012158;28;20632;-58
2021/12/01 00:42:41;;;;;;;4.43;4.03;;;8.50;99.90;;;;;;5014816;28;20268;-60
2021/12/01 00:45:12;;;;;;;3.97;3.07;;;8.40;99.90;;;;;;5015703;28;20252;-60
2021/12/01 00:47:43;;;;;;;5.20;3.30;;;8.50;99.90;;;;;;5015047;28;20286;-59
2021/12/01 00:50:13;;;;;;;3.67;3.20;;;8.50;99.90;;;;;;5015352;28;20246;-59
2021/12/01 00:52:40;;;;;;;4.33;3.37;;;8.40;99.90;;;;;;5015000;28;20226;-59
2021/12/01 00:55:08;;;;;;;3.07;2.70;;;8.40;99.90;;;;;;5015209;28;20217;-58
2021/12/01 00:57:35;;;;;;;5.03;3.67;;;8.40;99.90;;;;;;5015296;28;20276;-58
2021/12/01 01:00:04;;;;;;;4.33;3.73;;;8.40;99.90;;;;;;5015086;28;20218;-60
2021/12/01 01:02:30;;;;;;;8.73;4.00;;;8.40;99.90;;;;;;5014414;28;20706;-59
2021/12/01 01:04:57;;;;;;;5.10;3.63;;;8.40;99.90;;;;;;5015478;28;20210;-60
2021/12/01 01:07:25;;;;;;;5.57;3.97;;;8.40;99.90;;;;;;5015034;28;20568;-60
2021/12/01 01:09:52;;;;;;;4.10;3.03;;;8.40;99.90;;;;;;5015028;28;20218;-59
2021/12/01 01:18:02;;;;;;;5.10;3.70;;;8.40;99.90;;;;;;5014915;28;20190;-59
2021/12/01 01:20:29;;;;;;;3.47;3.10;;;8.40;99.90;;;;;;5014897;28;20208;-59
2021/12/01 01:22:57;;;;;;;3.37;2.80;;;8.40;99.90;;;;;;5014073;28;20310;-60
2021/12/01 01:25:24;;;;;;;3.97;2.60;;;8.40;99.90;;;;;;5014944;28;20213;-60
2021/12/01 01:27:51;;;;;;;3.43;2.90;;;8.40;99.90;;;;;;5014656;28;20214;-59
2021/12/01 01:30:18;;;;;;;3.00;2.53;;;8.40;94.70;;;;;;5014821;28;20217;-59
2021/12/01 01:32:45;;;;;;;3.27;2.73;;;8.40;58.80;;;;;;5014043;28;20725;-59
2021/12/01 01:35:12;;;;;;;4.03;2.47;;;8.40;2.10;;;;;;5014813;28;20210;-59
2021/12/01 01:37:39;;;;;;;4.07;2.73;;;8.40;1.00;;;;;;5014373;28;20211;-59
2021/12/01 01:40:09;;;;;;;3.63;2.50;;;8.40;1.00;;;;;;5014309;28;20218;-59
2021/12/01 01:42:36;;;;;;;2.90;2.50;;;8.40;1.00;;;;;;5013721;28;20718;-59
2021/12/01 01:45:04;;;;;;;4.70;2.87;;;8.40;1.00;;;;;;5014254;28;20213;-59
2021/12/01 01:47:30;;;;;;;3.63;2.60;;;8.40;1.00;;;;;;5014318;28;20224;-59
2021/12/01 01:50:02;;;;;;;3.27;2.40;;;8.40;1.00;;;;;;5015112;28;20311;-59
2021/12/01 01:52:29;;;;;;;3.37;2.57;;;8.40;1.00;;;;;;5013243;28;20223;-58
2021/12/01 01:54:56;;;;;;;2.87;2.57;;;8.40;1.00;;;;;;5014378;28;20224;-56
2021/12/01 01:57:24;;;;;;;3.50;2.70;;;8.40;1.00;;;;;;5014074;28;20264;-57
2021/12/01 01:59:50;;;;;;;6.03;2.80;;;8.40;1.00;;;;;;5013855;28;20667;-59
2021/12/01 02:02:18;;;;;;;2.47;2.10;;;8.40;1.00;;;;;;5013131;28;20238;-59
2021/12/01 02:04:44;;;;;;;3.40;2.47;;;8.40;1.00;;;;;;5013844;28;20214;-59
2021/12/01 02:07:11;;;;;;;3.37;2.37;;;8.40;1.00;;;;;;5013883;28;20583;-59
2021/12/01 02:09:38;;;;;;;2.63;2.20;;;8.30;1.00;;;;;;5013858;28;20204;-59
2021/12/01 02:12:06;;;;;;;3.97;2.83;;;8.30;1.00;;;;;;5013387;28;20205;-59
2021/12/01 02:14:34;;;;;;;3.93;2.40;;;8.30;1.00;;;;;;5013552;28;20313;-59
2021/12/01 02:17:00;;;;;;;3.27;2.13;;;8.30;1.00;;;;;;5013376;28;20240;-59
2021/12/01 02:19:28;;;;;;;2.87;2.40;;;8.30;1.00;;;;;;5013893;28;20209;-58
2021/12/01 02:21:56;;;;;;;3.27;2.40;;;8.30;1.00;;;;;;5013354;28;20582;-59
2021/12/01 02:24:24;;;;;;;3.53;2.37;;;8.30;1.00;;;;;;5012731;28;20769;-58
2021/12/01 02:26:52;;;;;;;3.33;2.60;;;8.30;1.00;;;;;;5013751;28;20299;-58
2021/12/01 02:29:21;;;;;;;3.43;2.87;;;8.20;1.00;;;;;;5013532;28;20210;-59
2021/12/01 02:31:50;;;;;;;3.50;2.57;;;8.20;1.00;;;;;;5013019;28;20602;-59
2021/12/01 02:34:19;;;;;;;3.00;2.70;;;8.20;1.00;;;;;;5013355;28;20320;-59
2021/12/01 02:36:47;;;;;;;2.90;2.27;;;8.20;99.90;;;;;;5013248;28;20237;-59
2021/12/01 02:39:16;;;;;;;2.93;2.63;;;8.20;99.90;;;;;;5013211;28;20298;-59
2021/12/01 02:41:44;;;;;;;4.07;2.77;;;8.20;99.90;;;;;;5012943;28;20263;-59
2021/12/01 02:44:13;;;;;;;3.13;2.83;;;8.20;99.90;;;;;;5012576;28;20696;-59
2021/12/01 02:46:40;;;;;;;2.93;2.57;;;8.20;99.90;;;;;;5012954;28;20711;-59
2021/12/01 02:49:07;;;;;;;3.35;3.03;;;8.20;99.90;;;;;;5011995;28;20436;-59
2021/12/01 02:51:36;;;;;;;3.63;3.30;;;8.20;99.90;;;;;;5011677;28;20420;-59
2021/12/01 02:54:04;;;;;;;4.13;3.28;;;8.30;99.90;;;;;;5011860;28;20421;-59
2021/12/01 02:56:33;;;;;;;3.30;2.80;;;8.30;99.90;;;;;;5013027;28;20214;-59
2021/12/01 02:59:01;;;;;;;4.00;3.40;;;8.30;99.90;;;;;;5013462;28;20245;-59
2021/12/01 03:01:29;;;;;;;3.70;3.20;;;8.20;99.90;;;;;;5012515;28;20238;-59
2021/12/01 03:03:57;;;;;;;;;;;8.20;99.90;;;;;;5013077;28;20046;-59
2021/12/01 03:06:25;;;;;;;;;;;8.20;99.90;;;;;;5013021;28;20436;-59
2021/12/01 03:08:52;;;;;;;3.80;3.40;;;8.20;99.90;;;;;;5012789;28;20251;-59
2021/12/01 03:11:18;;;;;;;6.90;4.27;;;8.10;99.90;;;;;;5012119;28;20634;-59
2021/12/01 03:13:46;;;;;;;6.00;4.37;;;8.10;99.90;;;;;;5012705;28;20228;-59
2021/12/01 03:16:15;;;;;;;4.50;4.10;;;8.10;99.90;;;;;;5012714;28;20205;-59
2021/12/01 03:18:43;;;;;;;4.70;4.20;;;8.10;99.90;;;;;;5012581;28;20208;-59
2021/12/01 03:21:11;;;;;;;5.77;4.47;;;8.10;99.90;;;;;;5012211;28;20586;-59
2021/12/01 03:23:37;;;;;;;5.93;4.50;;;8.10;99.90;;;;;;5012117;28;20228;-59
2021/12/01 03:26:04;;;;;;;6.17;5.23;;;8.10;99.90;;;;;;5012876;28;20209;-59
2021/12/01 03:28:31;;;;;;;6.03;5.07;;;8.10;99.90;;;;;;5011446;28;20416;-59
2021/12/01 03:30:59;;;;;;;6.73;4.90;;;8.10;99.90;;;;;;5012985;28;20728;-59
2021/12/01 03:33:26;;;;;;;6.18;5.20;;;8.10;99.90;;;;;;5011945;28;20833;-60
2021/12/01 03:35:54;;;;;;;6.03;5.43;;;8.10;99.90;;;;;;5013055;28;20276;-59
2021/12/01 03:38:25;;;;;;;6.00;5.03;;;8.10;99.90;;;;;;5012593;28;20214;-59
2021/12/01 03:40:52;;;;;;;5.47;4.17;;;8.00;99.90;;;;;;5013078;28;20255;-59
2021/12/01 03:43:18;;;;;;;;;;;8.00;99.90;;;;;;5012182;28;20046;-59
2021/12/01 03:45:45;;;;;;;7.05;5.97;;;8.00;99.90;;;;;;5011009;28;20409;-59
2021/12/01 03:48:13;;;;;;;6.00;5.40;;;7.90;99.90;;;;;;5011016;28;20416;-57
2021/12/01 03:50:42;;;;;;;7.32;5.85;;;8.00;99.90;;;;;;5010931;28;20424;-59
2021/12/01 03:53:08;;;;;;;6.27;5.63;;;7.90;99.90;;;;;;5011541;28;20770;-59
2021/12/01 03:55:35;;;;;;;5.83;4.67;;;7.90;99.90;;;;;;5012544;28;20208;-59
2021/12/01 03:58:03;;;;;;;7.50;6.70;;;7.90;99.90;;;;;;5011156;28;20507;-59
2021/12/01 04:00:29;;;;;;;5.53;4.77;;;7.80;99.90;;;;;;5011946;28;20270;-59
2021/12/01 04:02:56;;;;;;;7.40;5.83;;;7.80;99.90;;;;;;5011491;28;20239;-59
2021/12/01 04:05:24;;;;;;;7.03;5.47;;;7.80;99.90;;;;;;5011874;28;20672;-59
2021/12/01 04:07:51;;;;;;;6.87;5.87;;;7.70;99.90;;;;;;5012090;28;20207;-60
2021/12/01 04:10:19;;;;;;;7.27;6.00;;;7.70;99.90;;;;;;5012287;28;20262;-59
2021/12/01 04:12:46;;;;;;;8.10;6.30;;;7.70;99.90;;;;;;5011632;28;20231;-59
2021/12/01 04:15:14;;;;;;;7.07;6.00;;;7.60;99.90;;;;;;5012215;28;20218;-59
2021/12/01 04:17:43;;;;;;;9.53;6.63;;;7.60;99.90;;;;;;5015919;28;20207;-59
2021/12/01 04:20:12;;;;;;;9.63;6.63;;;7.60;99.90;;;;;;5016105;28;20218;-59
2021/12/01 04:22:40;;;;;;;10.93;7.63;;;7.50;99.90;;;;;;5015579;28;20227;-59
2021/12/01 04:25:08;;;;;;;8.00;6.20;;;7.50;99.90;;;;;;5015889;28;20327;-59
2021/12/01 04:27:34;;;;;;;8.47;7.00;;;7.50;99.90;;;;;;5016442;28;20207;-59
2021/12/01 04:30:01;;;;;;;10.50;7.27;;;7.50;99.90;;;;;;5015634;28;20212;-59
2021/12/01 04:32:28;;;;;;;6.60;5.83;;;7.50;99.90;;;;;;5014890;28;20257;-59
2021/12/01 04:34:56;;;;;;;9.57;6.40;;;7.50;99.90;;;;;;5015710;28;20203;-59
2021/12/01 04:37:23;;;;;;;7.83;6.40;;;7.50;99.90;;;;;;5015329;28;20203;-59
2021/12/01 04:39:51;;;;;;;10.20;6.83;;;7.50;99.90;;;;;;5015518;28;20206;-59
2021/12/01 04:42:17;;;;;;;8.23;6.50;;;7.50;99.90;;;;;;5015072;28;20207;-59
2021/12/01 04:44:44;;;;;;;10.00;6.90;;;7.50;99.90;;;;;;5015286;28;20235;-59
2021/12/01 04:47:13;;;;;;;10.43;6.00;;;7.60;99.90;;;;;;5015068;28;20212;-60
2021/12/01 04:49:40;;;;;;;8.70;5.87;;;7.50;99.90;;;;;;5015520;28;20298;-59
2021/12/01 04:52:09;;;;;;;8.53;5.53;;;7.50;99.90;;;;;;5014894;28;20203;-59
2021/12/01 04:54:36;;;;;;;16.17;10.13;;;7.50;99.90;;;;;;5015117;28;20245;-59
2021/12/01 04:57:05;;;;;;;6.90;4.20;;;7.60;99.90;;;;;;5015186;28;20214;-59
2021/12/01 04:59:33;;;;;;;6.17;5.03;;;7.60;99.90;;;;;;5014832;28;20319;-59
2021/12/01 05:02:00;;;;;;;9.90;5.83;;;7.60;99.90;;;;;;5015025;28;20212;-59
2021/12/01 05:04:27;;;;;;;5.73;4.40;;;7.70;99.90;;;;;;5014919;28;20235;-59
2021/12/01 05:06:54;;;;;;;6.77;4.80;;;7.70;98.40;;;;;;5018291;28;20203;-59
2021/12/01 05:09:21;;;;;;;5.93;4.33;;;7.70;76.50;;;;;;5034569;28;20614;-59
2021/12/01 05:11:47;;;;;;;5.47;4.73;;;7.70;61.40;;;;;;5034200;28;20676;-59
2021/12/01 05:14:16;;;;;;;6.77;4.97;;;7.70;50.70;;;;;;5026964;28;20734;-59
2021/12/01 05:16:43;;;;;;;5.53;4.57;;;7.70;39.60;;;;;;5013637;28;20207;-59
2021/12/01 05:19:11;;;;;;;4.93;3.53;;;7.70;33.60;;;;;;5014765;28;20204;-59
2021/12/01 05:21:38;;;;;;;5.03;3.93;;;7.70;20.30;;;;;;5013960;28;20208;-58
2021/12/01 05:24:05;;;;;;;5.80;4.13;;;7.70;16.20;;;;;;5014319;28;20228;-60
2021/12/01 05:26:32;;;;;;;4.50;3.43;;;7.70;3.20;;;;;;5013704;28;20691;-60
2021/12/01 05:28:59;;;;;;;4.30;3.43;;;7.70;3.00;;;;;;5013642;28;20224;-59
2021/12/01 05:31:27;;;;;;;3.50;3.00;;;7.70;1.00;;;;;;5013724;28;20212;-61
2021/12/01 05:33:54;;;;;;;4.63;3.40;;;7.80;1.00;;;;;;5014376;28;20278;-59
2021/12/01 05:36:20;;;;;;;4.53;3.57;;;7.80;1.00;;;;;;5013937;28;20254;-60
2021/12/01 05:38:47;;;;;;;4.40;2.97;;;7.80;1.00;;;;;;5014109;28;20211;-60
2021/12/01 05:41:14;;;;;;;5.33;3.00;;;7.70;1.00;;;;;;5013524;28;20216;-59
2021/12/01 05:43:41;;;;;;;5.40;3.07;;;7.70;1.00;;;;;;5014165;28;20290;-58
2021/12/01 05:46:08;;;;;;;4.67;3.10;;;7.80;1.00;;;;;;5013828;28;20218;-59
2021/12/01 05:48:36;;;;;;;3.07;2.77;;;7.80;1.00;;;;;;5014059;28;20247;-60
2021/12/01 05:51:02;;;;;;;4.37;2.93;;;7.80;1.00;;;;;;5013935;28;20210;-60
2021/12/01 05:53:29;;;;;;;3.43;3.10;;;7.80;1.00;;;;;;5013686;28;20230;-59
2021/12/01 05:55:56;;;;;;;4.43;2.67;;;7.90;1.00;;;;;;5013701;28;20213;-60
2021/12/01 05:58:23;;;;;;;5.73;2.70;;;7.90;1.00;;;;;;5014327;28;20250;-59
2021/12/01 06:00:50;;;;;;;2.73;2.43;;;7.90;1.00;;;;;;5013749;28;20246;-60
2021/12/01 06:03:17;;;;;;;3.50;2.80;;;7.80;1.00;;;;;;5013240;28;20238;-60
2021/12/01 06:05:45;;;;;;;3.77;3.17;;;7.80;1.00;;;;;;5013702;28;20262;-59
2021/12/01 06:08:12;;;;;;;4.63;2.60;;;7.80;1.00;;;;;;5013737;28;20671;-59
2021/12/01 06:10:40;;;;;;;3.63;2.43;;;7.70;1.00;;;;;;5013841;28;20210;-59
2021/12/01 06:13:07;;;;;;;3.17;2.53;;;7.70;1.00;;;;;;5011961;28;20224;-62
2021/12/01 06:15:34;;;;;;;2.67;2.20;;;7.70;1.00;;;;;;5005274;28;20211;-63
2021/12/01 06:18:01;;;;;;;3.50;2.57;;;7.60;1.00;;;;;;5013293;28;20580;-62
2021/12/01 06:20:28;;;;;;;3.63;2.33;;;7.60;1.00;;;;;;5013075;28;20217;-62
2021/12/01 06:22:57;;;;;;;4.20;2.40;;;7.60;1.00;;;;;;5012300;28;20235;-59
2021/12/01 06:25:24;;;;;;;4.20;3.00;;;7.60;1.00;;;;;;5031719;28;20235;-61
2021/12/01 06:27:51;;;;;;;3.67;2.57;;;7.60;1.00;;;;;;5032870;28;20215;-61
2021/12/01 06:30:18;;;;;;;3.20;2.60;;;7.50;1.00;;;;;;5032891;28;20207;-60
2021/12/01 06:32:45;;;;;;;3.27;2.50;;;7.50;1.00;;;;;;5029439;28;20707;-59
2021/12/01 06:35:12;;;;;;;4.00;2.90;;;7.50;1.00;;;;;;5012768;28;20207;-61
2021/12/01 06:37:39;;;;;;;2.67;2.40;;;7.50;1.00;;;;;;5012651;28;20202;-60
2021/12/01 06:40:09;;;;;;;3.30;2.47;;;7.50;1.00;;;;;;5012463;28;20207;-61
2021/12/01 06:42:35;;;;;;;3.70;2.50;;;7.50;1.00;;;;;;5012365;28;20226;-58
2021/12/01 06:45:09;;;;;;;3.40;2.73;;;7.40;1.00;;;;;;5012262;28;20231;-60
2021/12/01 06:47:36;;;;;;;6.07;2.90;;;7.40;1.00;;;;;;5012772;28;20208;-60
2021/12/01 06:50:13;;;;;;;3.73;2.80;;;7.30;1.00;;;;;;5012133;28;20270;-60
2021/12/01 06:52:40;;;;;;;3.20;2.87;;;7.30;1.00;;;;;;5012337;28;20308;-60
2021/12/01 06:55:09;;;;;;;4.20;3.10;;;7.10;22.50;;;;;;5012459;28;20203;-59
2021/12/01 06:57:37;;;;;;;4.30;2.83;;;7.10;99.90;;;;;;5012218;28;20631;-61
2021/12/01 07:00:05;;;;;;;3.57;2.17;;;7.10;99.90;;;;;;5012345;28;20211;-60
2021/12/01 07:02:32;;;;;;;3.63;3.30;;;7.00;99.90;;;;;;5011524;28;20239;-60
2021/12/01 07:04:59;;;;;;;6.07;3.67;;;6.90;99.90;;;;;;5011800;28;20219;-60
2021/12/01 07:07:25;;;;;;;3.77;3.20;;;6.90;99.90;;;;;;5012287;28;20207;-62
2021/12/01 07:09:53;;;;;;;4.57;3.30;;;6.90;99.90;;;;;;5012427;28;20233;-58
2021/12/01 07:12:21;;;;;;;4.53;3.50;;;6.90;99.90;;;;;;5011825;28;20235;-59
2021/12/01 07:14:47;;;;;;;5.23;3.50;;;6.80;99.90;;;;;;5011636;28;20202;-61
2021/12/01 07:17:14;;;;;;;5.67;3.30;;;6.80;99.90;;;;;;5011699;28;20261;-60
2021/12/01 07:19:41;;;;;;;4.60;3.73;;;6.80;99.90;;;;;;5012066;28;20207;-61
2021/12/01 07:22:08;;;;;;;4.20;3.30;;;6.80;99.90;;;;;;5011778;28;20214;-61
2021/12/01 07:24:34;;;;;;;4.63;3.27;;;6.80;99.90;;;;;;5011631;28;20223;-60
2021/12/01 07:27:01;;;;;;;3.00;2.40;;;6.80;1.00;;;;;;5010605;28;20213;-61
2021/12/01 07:29:30;;;;;;;6.77;3.57;;;6.80;1.00;;;;;;5011710;28;20219;-60
2021/12/01 07:31:57;;;;;;;3.70;3.10;;;6.80;1.00;;;;;;5010238;28;20245;-60
2021/12/01 07:34:23;;;;;;;4.23;3.43;;;6.80;1.00;;;;;;5011972;28;20223;-59
2021/12/01 07:36:50;;;;;;;4.13;3.47;;;6.80;1.00;;;;;;5011558;28;20211;-58
2021/12/01 07:39:19;;;;;;;4.80;3.97;;;6.80;1.00;;;;;;5012046;28;20261;-59
2021/12/01 07:41:46;;;;;;;6.33;3.60;;;6.80;1.00;;;;;;5011629;28;20210;-55
2021/12/01 07:44:13;;;;;;;5.03;4.00;;;6.80;1.00;;;;;;5010886;28;20231;-60
2021/12/01 07:46:42;;;;;;;5.93;3.90;;;6.80;1.00;;;;;;5011805;28;20214;-59
2021/12/01 07:49:09;;;;;;;3.47;2.63;;;6.80;1.00;;;;;;5011564;28;20210;-60
2021/12/01 07:51:35;;;;;;;4.97;3.90;;;6.80;1.00;;;;;;5010629;28;20222;-60
2021/12/01 07:54:02;;;;;;;3.63;3.23;;;6.80;1.00;;;;;;5011327;28;20234;-61
2021/12/01 07:56:29;;;;;;;5.10;3.60;;;6.80;1.00;;;;;;5011174;28;20591;-60
2021/12/01 07:58:55;;;;;;;4.17;3.77;;;6.90;1.00;;;;;;5011426;28;20212;-60
2021/12/01 08:01:22;;;;;;;4.00;3.20;;;6.90;1.00;;;;;;5010983;28;20206;-61
2021/12/01 08:03:50;;;;;;;4.83;3.10;;;6.90;1.00;;;;;;5011526;28;20243;-59
2021/12/01 08:06:16;;;;;;;5.40;3.60;;;6.90;1.00;;;;;;5011078;28;20231;-59
2021/12/01 08:08:43;;;;;;;4.13;3.50;;;6.90;1.00;;;;;;5011417;28;20272;-60
2021/12/01 08:11:10;;;;;;;3.97;2.90;;;6.90;1.00;;;;;;5010819;28;20203;-63
2021/12/01 08:13:36;;;;;;;3.53;3.00;;;6.90;1.00;;;;;;5011639;28;20227;-64
2021/12/01 08:16:03;;;;;;;4.00;3.10;;;7.00;1.00;;;;;;5011313;28;20208;-60
2021/12/01 08:18:30;;;;;;;3.47;2.53;;;7.00;1.00;;;;;;5011259;28;20936;-60
2021/12/01 08:20:58;;;;;;;4.73;2.40;;;7.00;1.00;;;;;;5011709;28;20616;-62
2021/12/01 08:23:25;;;;;;;2.73;2.23;;;7.00;1.00;;;;;;5011180;28;20281;-62
2021/12/01 08:25:51;;;;;;;3.23;2.20;;;7.10;1.00;;;;;;5011201;28;20233;-60
2021/12/01 08:28:18;;;;;;;2.93;2.07;;;7.20;1.00;;;;;;5011519;28;20219;-61
2021/12/01 08:30:45;;;;;;;2.40;1.67;;;7.20;1.00;;;;;;5011501;28;20207;-61
2021/12/01 08:33:11;;;;;;;1.93;1.67;;;7.20;1.00;;;;;;5010779;28;20787;-62
2021/12/01 08:35:40;;;;;;;4.53;1.80;;;7.20;1.00;;;;;;5010907;28;20214;-63
2021/12/01 08:38:08;;;;;;;1.93;1.70;;;7.30;1.00;;;;;;5011450;28;20693;-61
2021/12/01 08:40:35;;;;;;;1.63;1.53;;;7.30;1.00;;;;;;5010928;28;20211;-63
2021/12/01 08:43:03;;;;;;;1.77;1.47;;;7.30;1.00;;;;;;5010884;28;20271;-63
2021/12/01 08:45:32;;;;;;;1.60;1.30;;;7.30;1.00;;;;;;5010696;28;20231;-64
2021/12/01 08:47:59;;;;;;;1.63;1.40;;;7.40;1.00;;;;;;5011276;28;20695;-63
2021/12/01 08:50:26;;;;;;;1.93;1.50;;;7.40;1.00;;;;;;5011132;28;20265;-63
2021/12/01 08:52:52;;;;;;;2.23;1.73;;;7.40;1.00;;;;;;5010381;28;20238;-60
2021/12/01 08:55:22;;;;;;;1.97;1.47;;;7.40;1.00;;;;;;5011260;28;20210;-59
2021/12/01 08:57:48;;;;;;;2.20;1.23;;;7.50;1.00;;;;;;5011124;28;20298;-61
2021/12/01 09:00:17;;;;;;;1.73;1.50;;;7.50;1.00;;;;;;5011008;28;20208;-61
2021/12/01 09:02:44;;;;;;;1.57;1.37;;;7.60;1.00;;;;;;5012862;28;20609;-69
2021/12/01 09:05:11;;;;;;;1.40;1.30;;;7.60;1.00;;;;;;5014311;28;20230;-65
2021/12/01 09:07:42;;;;;;;1.33;1.20;;;7.70;99.90;;;;;;5014648;28;20648;-68
2021/12/01 09:10:18;;;;;;;2.47;1.10;;;7.70;99.90;;;;;;5014714;28;20266;-67
2021/12/01 09:12:46;;;;;;;2.27;1.10;;;7.80;99.90;;;;;;5014494;28;20239;-66
2021/12/01 09:15:13;;;;;;;1.03;0.67;;;7.80;99.90;;;;;;5014013;28;20239;-62
2021/12/01 09:17:40;;;;;;;1.23;1.13;;;7.80;99.90;;;;;;5014370;28;20208;-62
2021/12/01 09:20:08;;;;;;;1.00;0.90;;;7.90;99.90;;;;;;5014141;28;20208;-63
2021/12/01 09:22:35;;;;;;;1.60;1.00;;;7.90;99.90;;;;;;5014130;28;20601;-61
2021/12/01 09:25:01;;;;;;;1.90;0.93;;;7.90;99.90;;;;;;5014001;28;20230;-60
2021/12/01 09:27:28;;;;;;;1.17;1.07;;;7.90;99.90;;;;;;5013774;28;20704;-58
2021/12/01 09:29:56;;;;;;;1.73;1.20;;;7.90;99.90;;;;;;5014251;28;20211;-55
2021/12/01 09:32:23;;;;;;;0.90;0.90;;;7.90;99.90;;;;;;5013168;28;20209;-59
2021/12/01 09:34:49;;;;;;;1.20;1.10;;;7.90;99.90;;;;;;5014135;28;20582;-60
2021/12/01 09:37:16;;;;;;;1.80;1.03;;;7.90;99.90;;;;;;5013493;28;20253;-62
2021/12/01 09:39:43;;;;;;;1.17;1.00;;;7.90;99.90;;;;;;5013575;28;20208;-60
2021/12/01 09:42:11;;;;;;;1.57;1.07;;;7.90;99.90;;;;;;5013414;28;20616;-58
2021/12/01 09:44:38;;;;;;;1.07;0.97;;;7.90;99.90;;;;;;5013521;28;20205;-61
2021/12/01 09:47:07;;;;;;;0.93;0.77;;;8.00;99.90;;;;;;5013458;28;20693;-63
2021/12/01 09:49:34;;;;;;;1.97;1.37;;;8.00;99.90;;;;;;5013533;28;20215;-63
2021/12/01 09:52:00;;;;;;;1.93;1.70;;;8.00;99.90;;;;;;5013506;28;20212;-63
2021/12/01 09:54:27;;;;;;;2.00;1.20;;;8.00;99.90;;;;;;5013719;28;20238;-61
2021/12/01 09:56:54;;;;;;;1.87;1.13;;;8.00;99.90;;;;;;5013711;28;20208;-61
2021/12/01 09:59:20;;;;;;;0.80;0.70;;;8.00;99.90;;;;;;5013315;28;20211;-61
2021/12/01 10:01:47;;;;;;;0.90;0.63;;;8.00;99.90;;;;;;5013091;28;20217;-60
2021/12/01 10:04:15;;;;;;;1.00;0.70;;;8.00;99.90;;;;;;5013157;28;20236;-62
2021/12/01 10:06:42;;;;;;;0.70;0.70;;;8.00;99.90;;;;;;5013115;28;20643;-60
2021/12/01 10:09:09;;;;;;;0.60;0.50;;;8.00;99.90;;;;;;5013508;28;20285;-61
2021/12/01 10:11:39;;;;;;;1.03;0.70;;;8.10;99.90;;;;;;5012997;28;20242;-60
2021/12/01 10:14:08;;;;;;;0.60;0.50;;;8.00;99.90;;;;;;5012146;28;20231;-60
2021/12/01 10:16:38;;;;;;;1.40;0.60;;;8.00;99.90;;;;;;5012816;28;20669;-60
2021/12/01 10:19:08;;;;;;;0.70;0.60;;;8.00;99.90;;;;;;5013193;28;20220;-65
2021/12/01 10:21:39;;;;;;;1.00;0.80;;;8.10;99.90;;;;;;5012744;28;20217;-63
2021/12/01 10:24:10;;;;;;;2.90;1.00;;;8.10;99.90;;;;;;5012961;28;20225;-64
2021/12/01 10:26:40;;;;;;;1.30;0.80;;;8.10;99.90;;;;;;5012448;28;20669;-60
2021/12/01 10:29:11;;;;;;;0.80;0.70;;;8.10;99.90;;;;;;5013315;28;20189;-59
2021/12/01 10:31:41;;;;;;;0.70;0.63;;;8.10;99.90;;;;;;5012729;28;20213;-60
2021/12/01 10:34:26;;;;;;;1.80;0.70;;;8.10;99.90;;;;;;5012730;28;20237;-61
2021/12/01 10:37:10;;;;;;;0.63;0.57;;;8.10;99.90;;;;;;5012315;28;20208;-62
2021/12/01 10:39:37;;;;;;;0.50;0.50;;;8.10;99.90;;;;;;5012823;28;20213;-64
2021/12/01 10:42:05;;;;;;;1.97;0.57;;;8.20;99.90;;;;;;5012747;28;20255;-62
2021/12/01 10:44:33;;;;;;;0.67;0.50;;;8.10;99.90;;;;;;5012799;28;20230;-62
2021/12/01 10:47:07;;;;;;;0.80;0.53;;;8.20;99.90;;;;;;5012286;28;20765;-65
2021/12/01 10:49:38;;;;;;;0.83;0.70;;;8.20;99.90;;;;;;5012643;28;20218;-63
2021/12/01 10:52:06;;;;;;;0.83;0.60;;;8.20;99.90;;;;;;5012154;28;20212;-62
2021/12/01 10:55:36;;;;;;;0.50;0.50;;;8.10;99.90;;;;;;5012877;28;20261;-61
2021/12/01 10:58:07;;;;;;;0.90;0.60;;;8.10;99.90;;;;;;5001242;28;20209;-61
2021/12/01 11:00:39;;;;;;;0.83;0.50;;;8.10;99.90;;;;;;5012470;28;20339;-64
2021/12/01 11:03:07;;;;;;;1.10;0.80;;;8.10;99.90;;;;;;5011995;28;20268;-62
2021/12/01 11:05:36;;;;;;;1.23;0.50;;;8.10;99.90;;;;;;5011674;28;20285;-62
2021/12/01 11:08:15;;;;;;;2.00;0.90;;;8.10;99.90;;;;;;5012469;28;20233;-64
2021/12/01 11:10:44;;;;;;;1.93;1.33;;;8.20;99.90;;;;;;5012273;28;20219;-63
2021/12/01 11:13:12;;;;;;;1.40;0.90;;;8.20;99.90;;;;;;5012017;28;20291;-63
2021/12/01 11:15:41;;;;;;;1.07;0.87;;;8.20;99.90;;;;;;5011675;28;20583;-59
2021/12/01 11:18:10;;;;;;;1.50;1.00;;;8.20;99.90;;;;;;5012430;28;20705;-56
2021/12/01 11:20:40;;;;;;;1.40;1.00;;;8.20;99.90;;;;;;5012015;28;20218;-57
2021/12/01 11:23:18;;;;;;;2.03;1.10;;;8.20;99.90;;;;;;5011515;28;20263;-59
2021/12/01 11:25:47;;;;;;;2.07;1.70;;;8.20;99.90;;;;;;5010789;28;20222;-58
2021/12/01 11:28:17;;;;;;;2.57;1.30;;;8.20;99.90;;;;;;5011752;28;20607;-59
2021/12/01 11:30:46;;;;;;;2.07;1.07;;;8.20;99.90;;;;;;5011653;28;20660;-59
2021/12/01 11:33:16;;;;;;;2.13;1.40;;;8.20;1.00;;;;;;5011399;28;20752;-60
2021/12/01 11:35:44;;;;;;;1.33;1.07;;;8.20;1.00;;;;;;5011640;28;20227;-61
2021/12/01 11:38:12;;;;;;;1.40;1.20;;;8.20;1.00;;;;;;5011736;28;20682;-60
2021/12/01 11:40:39;;;;;;;2.57;1.60;;;8.20;1.00;;;;;;5012002;28;20210;-63
2021/12/01 11:43:28;;;;;;;1.33;0.90;;;8.20;1.00;;;;;;5044311;23;20444;-60
2021/12/01 11:45:55;;;;;;;2.13;1.65;;;8.20;1.00;;;;;;5030021;28;20422;-58
2021/12/01 11:48:24;;;;;;;2.38;1.25;;;8.30;1.00;;;;;;5030927;28;20425;-60
2021/12/01 11:50:58;;;;;;;2.10;1.30;;;8.40;1.00;;;;;;5030542;28;20415;-62
2021/12/01 11:53:27;;;;;;;1.50;1.35;;;8.40;99.90;;;;;;5019704;28;20429;-59
2021/12/01 11:55:57;;;;;;;1.30;1.20;;;8.40;99.90;;;;;;5010104;28;20413;-59
2021/12/01 11:58:50;;;;;;;1.90;1.35;;;8.50;99.90;;;;;;5010396;28;20417;-60
2021/12/01 12:01:42;;;;;;;1.27;1.10;;;8.50;99.90;;;;;;5010557;28;20423;-58
2021/12/01 12:04:21;;;;;;;1.80;1.50;;;8.50;99.90;;;;;;5010291;28;20427;-58
2021/12/01 12:06:49;;;;;;;1.65;1.38;;;8.60;99.90;;;;;;5010288;28;20535;-59
2021/12/01 12:09:18;;;;;;;2.03;1.50;;;8.60;99.90;;;;;;5010865;28;20474;-60
2021/12/01 12:11:47;;;;;;;2.00;1.20;;;8.60;99.90;;;;;;5010324;28;20963;-61
2021/12/01 12:14:18;;;;;;;1.73;1.30;;;8.40;99.90;;;;;;5009836;28;20417;-62
2021/12/01 12:17:12;;;;;;;2.67;1.35;;;8.40;99.90;;;;;;5009950;28;20844;-58
2021/12/01 12:19:50;;;;;;;2.83;1.77;;;8.30;99.90;;;;;;5010176;28;20987;-60
2021/12/01 12:24:53;;;;;;;4.13;1.60;;;8.20;99.90;;;;;;5007150;28;20429;-60
2021/12/01 12:27:36;;;;;;;4.60;2.00;;;8.00;99.30;;;;;;5010003;28;20432;-61
2021/12/01 12:30:09;;;;;;;5.32;1.90;;;8.00;93.70;;;;;;5010475;28;20417;-61
2021/12/01 12:35:07;;;;;;;5.15;2.10;;;8.00;80.10;;;;;;5026791;28;20427;-59
2021/12/01 12:37:35;;;;;;;3.38;1.40;;;8.00;73.60;;;;;;5032191;28;20895;-62
2021/12/01 12:40:06;;;;;;;3.53;1.70;;;8.00;52.50;;;;;;5034040;28;20505;-61
2021/12/01 12:42:33;;;;;;;4.85;2.10;;;8.10;42.90;;;;;;5033460;28;20411;-64
2021/12/01 12:45:00;;;;;;;4.43;2.10;;;8.20;41.50;;;;;;5033415;28;20419;-64
2021/12/01 12:47:44;;;;;;;5.47;2.10;;;8.30;60.90;;;;;;5033383;28;20457;-65
2021/12/01 12:50:14;;;;;;;5.55;2.13;;;8.50;34.50;;;;;;5033302;28;20415;-65
2021/12/01 12:52:41;;;;;;;5.72;2.08;;;8.50;16.90;;;;;;5032713;28;20840;-66
2021/12/01 12:55:10;;;;;;;3.45;2.10;;;8.70;3.80;;;;;;5033193;28;20838;-59
2021/12/01 12:57:56;;;;;;;4.17;2.33;;;8.50;1.00;;;;;;5033298;28;20418;-58
2021/12/01 13:00:26;;;;;;;4.00;1.77;;;8.40;1.00;;;;;;5033403;28;20419;-59
2021/12/01 13:02:55;;;;;;;4.78;1.77;;;8.30;1.00;;;;;;5032851;28;20418;-59
2021/12/01 13:05:37;;;;;;;4.40;2.10;;;8.30;1.00;;;;;;5032703;28;20415;-63
2021/12/01 13:08:25;;;;;;;5.00;2.03;;;8.30;1.00;;;;;;5033159;28;20423;-60
2021/12/01 13:10:52;;;;;;;5.68;1.92;;;8.30;1.00;;;;;;5032949;28;20419;-60
2021/12/01 13:13:27;;;;;;;5.18;2.15;;;8.20;1.00;;;;;;5032418;28;20422;-62
2021/12/01 13:15:54;;;;;;;3.83;1.90;;;8.20;1.00;;;;;;5032532;28;20407;-62
2021/12/01 13:18:25;;;;;;;5.43;2.20;;;8.10;1.00;;;;;;5032881;28;20430;-60
2021/12/01 13:20:53;;;;;;;4.45;1.80;;;8.10;1.00;;;;;;5033065;28;20418;-59